sensor_id;sensor_type;location;lat;lon;timestamp;pressure;altitude;pressure_sealevel;temperature;humidity
68712;BME280;55690;51.566;19.198;2022-08-06T00:02:51;101475.73;;;22.98;91.93
68712;BME280;55690;51.566;19.198;2022-08-06T00:06:57;101475.20;;;23.02;91.70
68712;BME280;55690;51.566;19.198;2022-08-06T00:11:03;101484.38;;;23.03;92.33
68712;BME280;55690;51.566;19.198;2022-08-06T00:15:10;101483.16;;;22.97;94.17
68712;BME280;55690;51.566;19.198;2022-08-06T00:19:15;101481.27;;;22.98;92.59
68712;BME280;55690;51.566;19.198;2022-08-06T00:23:21;101482.30;;;22.97;93.42
68712;BME280;55690;51.566;19.198;2022-08-06T00:27:28;101482.69;;;22.94;93.50
68712;BME280;55690;51.566;19.198;2022-08-06T00:31:34;101482.69;;;22.94;92.89
68712;BME280;55690;51.566;19.198;2022-08-06T00:35:40;101487.66;;;22.98;92.25
68712;BME280;55690;51.566;19.198;2022-08-06T00:39:46;101485.08;;;22.97;92.43
68712;BME280;55690;51.566;19.198;2022-08-06T00:43:52;101496.16;;;22.97;93.37
68712;BME280;55690;51.566;19.198;2022-08-06T00:47:59;101501.69;;;22.97;94.47
68712;BME280;55690;51.566;19.198;2022-08-06T00:52:05;101506.41;;;22.88;95.49
68712;BME280;55690;51.566;19.198;2022-08-06T00:56:11;101521.12;;;22.80;95.69
68712;BME280;55690;51.566;19.198;2022-08-06T01:00:17;101516.59;;;22.71;94.04
68712;BME280;55690;51.566;19.198;2022-08-06T01:04:23;101506.73;;;22.69;94.38
68712;BME280;55690;51.566;19.198;2022-08-06T01:08:29;101503.95;;;22.69;94.73
68712;BME280;55690;51.566;19.198;2022-08-06T01:12:35;101491.49;;;22.65;94.30
68712;BME280;55690;51.566;19.198;2022-08-06T01:16:54;101510.36;;;22.61;95.45
68712;BME280;55690;51.566;19.198;2022-08-06T01:21:04;101507.94;;;22.58;95.37
68712;BME280;55690;51.566;19.198;2022-08-06T01:29:33;101509.31;;;22.62;95.07
68712;BME280;55690;51.566;19.198;2022-08-06T01:33:40;101515.91;;;22.45;96.45
68712;BME280;55690;51.566;19.198;2022-08-06T01:41:57;101514.16;;;22.36;97.59
68712;BME280;55690;51.566;19.198;2022-08-06T01:46:00;101516.56;;;22.22;98.73
68712;BME280;55690;51.566;19.198;2022-08-06T01:50:06;101524.86;;;22.22;99.29
68712;BME280;55690;51.566;19.198;2022-08-06T01:54:10;101523.82;;;22.07;99.73
68712;BME280;55690;51.566;19.198;2022-08-06T01:58:15;101534.52;;;22.10;100.00
68712;BME280;55690;51.566;19.198;2022-08-06T02:02:21;101529.17;;;22.09;100.00
68712;BME280;55690;51.566;19.198;2022-08-06T02:06:28;101522.72;;;22.00;100.00
68712;BME280;55690;51.566;19.198;2022-08-06T02:10:34;101521.13;;;21.89;100.00
68712;BME280;55690;51.566;19.198;2022-08-06T02:14:43;101528.89;;;21.86;100.00
68712;BME280;55690;51.566;19.198;2022-08-06T02:18:47;101527.53;;;21.90;100.00
68712;BME280;55690;51.566;19.198;2022-08-06T02:22:51;101529.26;;;21.91;100.00
68712;BME280;55690;51.566;19.198;2022-08-06T02:26:55;101544.13;;;21.90;100.00
68712;BME280;55690;51.566;19.198;2022-08-06T02:30:59;101550.52;;;21.90;100.00
68712;BME280;55690;51.566;19.198;2022-08-06T02:35:01;101579.73;;;21.93;100.00
68712;BME280;55690;51.566;19.198;2022-08-06T02:43:22;101606.68;;;21.91;100.00
68712;BME280;55690;51.566;19.198;2022-08-06T02:47:35;101618.78;;;21.90;100.00
68712;BME280;55690;51.566;19.198;2022-08-06T02:51:45;101621.79;;;21.71;100.00
68712;BME280;55690;51.566;19.198;2022-08-06T02:56:02;101618.20;;;21.78;100.00
68712;BME280;55690;51.566;19.198;2022-08-06T03:00:04;101644.04;;;21.61;100.00
68712;BME280;55690;51.566;19.198;2022-08-06T03:07:36;101670.49;;;21.64;100.00
68712;BME280;55690;51.566;19.198;2022-08-06T03:11:41;101676.34;;;21.61;100.00
68712;BME280;55690;51.566;19.198;2022-08-06T03:15:46;101681.65;;;21.54;100.00
68712;BME280;55690;51.566;19.198;2022-08-06T03:19:52;101683.22;;;21.56;100.00
68712;BME280;55690;51.566;19.198;2022-08-06T03:23:59;101688.68;;;21.48;100.00
68712;BME280;55690;51.566;19.198;2022-08-06T03:28:04;101708.97;;;21.57;100.00
68712;BME280;55690;51.566;19.198;2022-08-06T03:32:11;101716.31;;;21.48;100.00
68712;BME280;55690;51.566;19.198;2022-08-06T03:36:16;101722.72;;;21.49;100.00
68712;BME280;55690;51.566;19.198;2022-08-06T03:40:23;101718.92;;;21.50;100.00
68712;BME280;55690;51.566;19.198;2022-08-06T03:44:28;101731.16;;;21.47;100.00
68712;BME280;55690;51.566;19.198;2022-08-06T03:48:40;101731.18;;;21.30;100.00
68712;BME280;55690;51.566;19.198;2022-08-06T03:52:46;101727.70;;;21.45;100.00
68712;BME280;55690;51.566;19.198;2022-08-06T03:56:50;101741.20;;;21.31;100.00
68712;BME280;55690;51.566;19.198;2022-08-06T04:01:02;101743.17;;;21.20;100.00
68712;BME280;55690;51.566;19.198;2022-08-06T04:05:06;101753.91;;;21.23;100.00
68712;BME280;55690;51.566;19.198;2022-08-06T04:09:08;101773.49;;;21.30;100.00
68712;BME280;55690;51.566;19.198;2022-08-06T04:13:17;101791.25;;;21.45;100.00
68712;BME280;55690;51.566;19.198;2022-08-06T04:17:20;101798.98;;;21.24;100.00
68712;BME280;55690;51.566;19.198;2022-08-06T04:21:25;101807.61;;;21.21;100.00
68712;BME280;55690;51.566;19.198;2022-08-06T04:25:33;101808.60;;;21.20;100.00
68712;BME280;55690;51.566;19.198;2022-08-06T04:29:40;101799.63;;;20.90;100.00
68712;BME280;55690;51.566;19.198;2022-08-06T04:33:44;101793.79;;;20.93;100.00
68712;BME280;55690;51.566;19.198;2022-08-06T04:37:49;101803.35;;;20.99;100.00
68712;BME280;55690;51.566;19.198;2022-08-06T04:41:56;101805.91;;;20.83;100.00
68712;BME280;55690;51.566;19.198;2022-08-06T04:46:01;101798.51;;;20.83;100.00
68712;BME280;55690;51.566;19.198;2022-08-06T04:50:09;101816.54;;;21.05;100.00
68712;BME280;55690;51.566;19.198;2022-08-06T04:54:15;101820.38;;;20.95;100.00
68712;BME280;55690;51.566;19.198;2022-08-06T04:58:20;101812.30;;;20.83;100.00
68712;BME280;55690;51.566;19.198;2022-08-06T05:02:26;101781.24;;;20.54;100.00
68712;BME280;55690;51.566;19.198;2022-08-06T05:06:40;101808.95;;;20.25;100.00
68712;BME280;55690;51.566;19.198;2022-08-06T05:10:52;101840.99;;;20.36;100.00
68712;BME280;55690;51.566;19.198;2022-08-06T05:19:12;101809.41;;;20.11;100.00
68712;BME280;55690;51.566;19.198;2022-08-06T05:23:21;101833.08;;;20.04;100.00
68712;BME280;55690;51.566;19.198;2022-08-06T05:27:24;101833.52;;;19.99;100.00
68712;BME280;55690;51.566;19.198;2022-08-06T05:31:30;101831.35;;;19.93;100.00
68712;BME280;55690;51.566;19.198;2022-08-06T05:39:37;101853.68;;;20.09;100.00
68712;BME280;55690;51.566;19.198;2022-08-06T05:43:39;101867.45;;;20.19;100.00
68712;BME280;55690;51.566;19.198;2022-08-06T05:47:42;101875.45;;;20.12;100.00
68712;BME280;55690;51.566;19.198;2022-08-06T06:00:16;101867.91;;;19.95;100.00
68712;BME280;55690;51.566;19.198;2022-08-06T06:04:20;101865.00;;;20.06;100.00
68712;BME280;55690;51.566;19.198;2022-08-06T06:08:22;101883.87;;;20.11;100.00
68712;BME280;55690;51.566;19.198;2022-08-06T06:12:25;101893.88;;;20.12;100.00
68712;BME280;55690;51.566;19.198;2022-08-06T06:16:31;101912.46;;;20.00;100.00
68712;BME280;55690;51.566;19.198;2022-08-06T06:24:56;101940.18;;;20.18;100.00
68712;BME280;55690;51.566;19.198;2022-08-06T06:29:08;101938.15;;;20.10;100.00
68712;BME280;55690;51.566;19.198;2022-08-06T06:41:47;101943.83;;;19.89;100.00
68712;BME280;55690;51.566;19.198;2022-08-06T06:54:27;101987.43;;;19.55;100.00
68712;BME280;55690;51.566;19.198;2022-08-06T06:58:37;101968.11;;;19.46;100.00
68712;BME280;55690;51.566;19.198;2022-08-06T07:02:41;102015.04;;;19.75;100.00
68712;BME280;55690;51.566;19.198;2022-08-06T07:06:47;102031.80;;;19.52;100.00
68712;BME280;55690;51.566;19.198;2022-08-06T07:10:50;102042.36;;;19.47;100.00
68712;BME280;55690;51.566;19.198;2022-08-06T07:14:55;102060.18;;;19.43;100.00
68712;BME280;55690;51.566;19.198;2022-08-06T07:18:57;102068.06;;;19.57;100.00
68712;BME280;55690;51.566;19.198;2022-08-06T07:23:05;102072.38;;;19.20;100.00
68712;BME280;55690;51.566;19.198;2022-08-06T07:27:08;102072.89;;;18.83;100.00
68712;BME280;55690;51.566;19.198;2022-08-06T07:31:10;102075.79;;;18.61;100.00
68712;BME280;55690;51.566;19.198;2022-08-06T07:35:13;102081.52;;;18.58;100.00
68712;BME280;55690;51.566;19.198;2022-08-06T07:39:20;102094.39;;;18.25;100.00
68712;BME280;55690;51.566;19.198;2022-08-06T07:43:27;102103.61;;;18.36;100.00
68712;BME280;55690;51.566;19.198;2022-08-06T07:47:34;102110.51;;;18.30;100.00
68712;BME280;55690;51.566;19.198;2022-08-06T07:51:40;102111.25;;;18.32;100.00
68712;BME280;55690;51.566;19.198;2022-08-06T07:55:43;102132.82;;;18.16;100.00
68712;BME280;55690;51.566;19.198;2022-08-06T07:59:46;102154.06;;;18.14;100.00
68712;BME280;55690;51.566;19.198;2022-08-06T08:03:49;102147.70;;;18.02;100.00
68712;BME280;55690;51.566;19.198;2022-08-06T08:08:04;102158.08;;;17.99;100.00
68712;BME280;55690;51.566;19.198;2022-08-06T08:12:07;102157.72;;;17.92;100.00
68712;BME280;55690;51.566;19.198;2022-08-06T08:16:13;102169.45;;;18.05;100.00
68712;BME280;55690;51.566;19.198;2022-08-06T08:20:15;102183.44;;;18.02;100.00
68712;BME280;55690;51.566;19.198;2022-08-06T08:24:17;102176.94;;;18.03;100.00
68712;BME280;55690;51.566;19.198;2022-08-06T08:28:19;102180.94;;;17.99;100.00
68712;BME280;55690;51.566;19.198;2022-08-06T08:32:21;102180.45;;;17.94;100.00
68712;BME280;55690;51.566;19.198;2022-08-06T08:36:23;102175.20;;;17.91;100.00
68712;BME280;55690;51.566;19.198;2022-08-06T08:40:25;102181.20;;;17.85;100.00
68712;BME280;55690;51.566;19.198;2022-08-06T08:44:28;102186.19;;;17.91;100.00
68712;BME280;55690;51.566;19.198;2022-08-06T08:48:35;102195.18;;;17.93;100.00
68712;BME280;55690;51.566;19.198;2022-08-06T08:52:39;102189.68;;;18.04;100.00
68712;BME280;55690;51.566;19.198;2022-08-06T08:56:45;102185.19;;;17.92;100.00
68712;BME280;55690;51.566;19.198;2022-08-06T09:00:48;102185.44;;;18.00;100.00
68712;BME280;55690;51.566;19.198;2022-08-06T09:04:50;102191.18;;;18.08;100.00
68712;BME280;55690;51.566;19.198;2022-08-06T09:08:53;102209.80;;;18.16;100.00
68712;BME280;55690;51.566;19.198;2022-08-06T09:12:55;102219.05;;;18.15;100.00
68712;BME280;55690;51.566;19.198;2022-08-06T09:17:01;102219.17;;;18.02;100.00
68712;BME280;55690;51.566;19.198;2022-08-06T09:21:04;102224.88;;;18.21;100.00
68712;BME280;55690;51.566;19.198;2022-08-06T09:25:07;102226.17;;;18.06;100.00
68712;BME280;55690;51.566;19.198;2022-08-06T09:29:21;102230.66;;;18.18;100.00
68712;BME280;55690;51.566;19.198;2022-08-06T09:33:23;102243.42;;;18.19;100.00
68712;BME280;55690;51.566;19.198;2022-08-06T09:37:29;102255.41;;;18.07;100.00
68712;BME280;55690;51.566;19.198;2022-08-06T09:45:44;102266.15;;;17.99;100.00
68712;BME280;55690;51.566;19.198;2022-08-06T09:53:58;102270.27;;;17.93;100.00
68712;BME280;55690;51.566;19.198;2022-08-06T09:58:00;102268.16;;;18.08;100.00
68712;BME280;55690;51.566;19.198;2022-08-06T10:02:11;102286.91;;;18.14;100.00
68712;BME280;55690;51.566;19.198;2022-08-06T10:06:16;102291.02;;;18.09;100.00
68712;BME280;55690;51.566;19.198;2022-08-06T10:14:37;102294.38;;;17.90;100.00
68712;BME280;55690;51.566;19.198;2022-08-06T10:18:44;102295.75;;;17.95;100.00
68712;BME280;55690;51.566;19.198;2022-08-06T10:22:51;102292.87;;;17.86;100.00
68712;BME280;55690;51.566;19.198;2022-08-06T10:26:57;102310.25;;;18.20;100.00
68712;BME280;55690;51.566;19.198;2022-08-06T10:31:06;102303.25;;;18.27;100.00
68712;BME280;55690;51.566;19.198;2022-08-06T10:35:08;102302.88;;;18.32;100.00
68712;BME280;55690;51.566;19.198;2022-08-06T10:39:14;102317.13;;;18.37;100.00
68712;BME280;55690;51.566;19.198;2022-08-06T10:43:16;102303.28;;;18.16;100.00
68712;BME280;55690;51.566;19.198;2022-08-06T10:47:19;102312.01;;;18.32;100.00
68712;BME280;55690;51.566;19.198;2022-08-06T10:51:23;102314.25;;;18.49;100.00
68712;BME280;55690;51.566;19.198;2022-08-06T10:55:24;102305.88;;;18.40;100.00
68712;BME280;55690;51.566;19.198;2022-08-06T10:59:26;102306.38;;;18.56;100.00
68712;BME280;55690;51.566;19.198;2022-08-06T11:20:36;102325.18;;;19.05;100.00
68712;BME280;55690;51.566;19.198;2022-08-06T11:24:49;102321.36;;;19.49;100.00
68712;BME280;55690;51.566;19.198;2022-08-06T11:28:58;102303.00;;;19.39;100.00
68712;BME280;55690;51.566;19.198;2022-08-06T11:33:01;102314.10;;;19.48;100.00
68712;BME280;55690;51.566;19.198;2022-08-06T11:37:03;102314.81;;;19.50;100.00
68712;BME280;55690;51.566;19.198;2022-08-06T11:41:09;102318.34;;;19.52;100.00
68712;BME280;55690;51.566;19.198;2022-08-06T11:45:11;102315.54;;;19.84;100.00
68712;BME280;55690;51.566;19.198;2022-08-06T11:49:18;102317.82;;;19.79;100.00
68712;BME280;55690;51.566;19.198;2022-08-06T11:57:34;102320.38;;;19.92;100.00
68712;BME280;55690;51.566;19.198;2022-08-06T12:01:47;102324.28;;;19.89;100.00
68712;BME280;55690;51.566;19.198;2022-08-06T12:05:48;102320.06;;;20.16;100.00
68712;BME280;55690;51.566;19.198;2022-08-06T12:14:04;102327.20;;;19.98;100.00
68712;BME280;55690;51.566;19.198;2022-08-06T12:18:07;102319.20;;;20.46;100.00
68712;BME280;55690;51.566;19.198;2022-08-06T12:22:12;102320.06;;;20.96;100.00
68712;BME280;55690;51.566;19.198;2022-08-06T12:26:15;102326.34;;;21.08;100.00
68712;BME280;55690;51.566;19.198;2022-08-06T12:30:18;102321.92;;;20.86;100.00
68712;BME280;55690;51.566;19.198;2022-08-06T12:34:25;102318.18;;;20.97;100.00
68712;BME280;55690;51.566;19.198;2022-08-06T12:38:30;102308.62;;;21.20;100.00
68712;BME280;55690;51.566;19.198;2022-08-06T12:46:42;102303.84;;;21.41;100.00
68712;BME280;55690;51.566;19.198;2022-08-06T12:50:44;102311.78;;;21.83;100.00
68712;BME280;55690;51.566;19.198;2022-08-06T12:58:51;102312.80;;;22.01;99.09
68712;BME280;55690;51.566;19.198;2022-08-06T13:07:00;102316.14;;;22.42;100.00
68712;BME280;55690;51.566;19.198;2022-08-06T13:11:05;102309.16;;;22.65;97.80
68712;BME280;55690;51.566;19.198;2022-08-06T13:15:13;102309.16;;;22.38;94.69
68712;BME280;55690;51.566;19.198;2022-08-06T13:19:17;102314.44;;;22.58;93.21
68712;BME280;55690;51.566;19.198;2022-08-06T13:23:29;102309.34;;;22.91;96.76
68712;BME280;55690;51.566;19.198;2022-08-06T13:27:32;102318.29;;;22.75;92.10
68712;BME280;55690;51.566;19.198;2022-08-06T13:31:36;102309.34;;;22.91;91.09
68712;BME280;55690;51.566;19.198;2022-08-06T13:35:39;102314.81;;;23.18;90.55
68712;BME280;55690;51.566;19.198;2022-08-06T13:39:50;102316.70;;;23.18;85.20
68712;BME280;55690;51.566;19.198;2022-08-06T13:43:53;102319.66;;;23.34;86.74
68712;BME280;55690;51.566;19.198;2022-08-06T13:48:02;102317.44;;;23.55;89.41
68712;BME280;55690;51.566;19.198;2022-08-06T13:52:05;102325.83;;;23.28;88.49
68712;BME280;55690;51.566;19.198;2022-08-06T13:56:08;102326.39;;;23.32;85.59
68712;BME280;55690;51.566;19.198;2022-08-06T14:00:10;102324.64;;;23.31;87.32
68712;BME280;55690;51.566;19.198;2022-08-06T14:04:13;102319.57;;;23.26;85.21
68712;BME280;55690;51.566;19.198;2022-08-06T14:08:16;102304.91;;;23.16;85.86
68712;BME280;55690;51.566;19.198;2022-08-06T14:12:17;102323.93;;;23.29;87.13
68712;BME280;55690;51.566;19.198;2022-08-06T14:16:19;102320.27;;;23.10;87.28
68712;BME280;55690;51.566;19.198;2022-08-06T14:20:24;102319.87;;;22.78;86.85
68712;BME280;55690;51.566;19.198;2022-08-06T14:28:36;102322.22;;;22.82;89.10
68712;BME280;55690;51.566;19.198;2022-08-06T14:32:43;102311.72;;;22.76;84.66
68712;BME280;55690;51.566;19.198;2022-08-06T14:36:49;102317.48;;;22.93;84.15
68712;BME280;55690;51.566;19.198;2022-08-06T14:40:55;102318.52;;;22.92;87.32
68712;BME280;55690;51.566;19.198;2022-08-06T14:45:09;102315.65;;;22.83;88.79
68712;BME280;55690;51.566;19.198;2022-08-06T14:49:11;102305.97;;;22.60;83.84
68712;BME280;55690;51.566;19.198;2022-08-06T14:53:13;102309.16;;;22.65;81.62
68712;BME280;55690;51.566;19.198;2022-08-06T14:57:19;102281.46;;;22.65;85.65
68712;BME280;55690;51.566;19.198;2022-08-06T15:01:25;102301.26;;;22.70;81.21
68712;BME280;55690;51.566;19.198;2022-08-06T15:05:32;102306.20;;;22.49;86.59
68712;BME280;55690;51.566;19.198;2022-08-06T15:09:38;102308.13;;;22.39;81.71
68712;BME280;55690;51.566;19.198;2022-08-06T15:13:50;102312.77;;;22.48;82.25
68712;BME280;55690;51.566;19.198;2022-08-06T15:17:51;102303.47;;;22.39;85.09
68712;BME280;55690;51.566;19.198;2022-08-06T15:26:03;102305.63;;;22.45;80.44
68712;BME280;55690;51.566;19.198;2022-08-06T15:30:09;102313.97;;;22.36;78.71
68712;BME280;55690;51.566;19.198;2022-08-06T15:34:15;102304.72;;;22.17;81.00
68712;BME280;55690;51.566;19.198;2022-08-06T15:38:22;102315.91;;;22.26;86.76
68712;BME280;55690;51.566;19.198;2022-08-06T15:42:27;102308.08;;;22.11;84.84
68712;BME280;55690;51.566;19.198;2022-08-06T15:46:33;102305.48;;;22.00;88.27
68712;BME280;55690;51.566;19.198;2022-08-06T15:50:43;102308.88;;;21.75;89.89
68712;BME280;55690;51.566;19.198;2022-08-06T15:54:46;102308.63;;;21.58;89.46
68712;BME280;55690;51.566;19.198;2022-08-06T15:58:52;102315.33;;;21.37;87.48
68712;BME280;55690;51.566;19.198;2022-08-06T16:02:58;102313.88;;;21.42;89.50
68712;BME280;55690;51.566;19.198;2022-08-06T16:07:05;102310.23;;;21.32;83.35
68712;BME280;55690;51.566;19.198;2022-08-06T16:11:11;102309.20;;;21.14;79.29
68712;BME280;55690;51.566;19.198;2022-08-06T16:15:17;102314.41;;;21.07;91.97
68712;BME280;55690;51.566;19.198;2022-08-06T16:19:23;102318.64;;;21.11;83.98
68712;BME280;55690;51.566;19.198;2022-08-06T16:23:29;102312.06;;;20.93;94.35
68712;BME280;55690;51.566;19.198;2022-08-06T16:27:35;102307.24;;;20.85;79.60
68712;BME280;55690;51.566;19.198;2022-08-06T16:31:41;102319.47;;;20.92;84.17
68712;BME280;55690;51.566;19.198;2022-08-06T16:35:48;102319.32;;;20.94;84.95
68712;BME280;55690;51.566;19.198;2022-08-06T16:39:54;102308.40;;;20.83;82.57
68712;BME280;55690;51.566;19.198;2022-08-06T16:44:00;102322.23;;;20.92;83.82
68712;BME280;55690;51.566;19.198;2022-08-06T16:48:06;102328.04;;;20.89;85.44
68712;BME280;55690;51.566;19.198;2022-08-06T16:56:18;102337.63;;;20.85;89.17
68712;BME280;55690;51.566;19.198;2022-08-06T17:00:25;102346.00;;;20.65;93.23
68712;BME280;55690;51.566;19.198;2022-08-06T17:04:30;102343.06;;;20.56;96.97
68712;BME280;55690;51.566;19.198;2022-08-06T17:08:36;102341.27;;;20.46;98.77
68712;BME280;55690;51.566;19.198;2022-08-06T17:12:44;102347.42;;;20.29;96.99
68712;BME280;55690;51.566;19.198;2022-08-06T17:16:49;102345.49;;;20.19;98.30
68712;BME280;55690;51.566;19.198;2022-08-06T17:20:55;102345.49;;;19.99;98.08
68712;BME280;55690;51.566;19.198;2022-08-06T17:25:02;102356.02;;;19.84;98.53
68712;BME280;55690;51.566;19.198;2022-08-06T17:29:07;102345.92;;;19.73;99.14
68712;BME280;55690;51.566;19.198;2022-08-06T17:33:13;102349.13;;;19.57;99.78
68712;BME280;55690;51.566;19.198;2022-08-06T17:37:20;102344.68;;;19.45;100.00
68712;BME280;55690;51.566;19.198;2022-08-06T17:41:30;102345.10;;;19.30;100.00
68712;BME280;55690;51.566;19.198;2022-08-06T17:45:32;102351.03;;;19.14;100.00
68712;BME280;55690;51.566;19.198;2022-08-06T17:49:42;102348.79;;;19.08;100.00
68712;BME280;55690;51.566;19.198;2022-08-06T17:53:49;102355.23;;;18.97;100.00
68712;BME280;55690;51.566;19.198;2022-08-06T18:06:07;102359.77;;;18.53;100.00
68712;BME280;55690;51.566;19.198;2022-08-06T18:18:35;102372.38;;;18.11;100.00
68712;BME280;55690;51.566;19.198;2022-08-06T18:22:36;102370.84;;;17.96;100.00
68712;BME280;55690;51.566;19.198;2022-08-06T18:30:44;102381.28;;;17.80;100.00
68712;BME280;55690;51.566;19.198;2022-08-06T18:34:50;102389.16;;;17.73;100.00
68712;BME280;55690;51.566;19.198;2022-08-06T18:38:56;102386.33;;;17.62;100.00
68712;BME280;55690;51.566;19.198;2022-08-06T18:43:06;102397.27;;;17.51;100.00
68712;BME280;55690;51.566;19.198;2022-08-06T18:47:08;102400.30;;;17.35;100.00
68712;BME280;55690;51.566;19.198;2022-08-06T18:51:18;102400.02;;;17.27;100.00
68712;BME280;55690;51.566;19.198;2022-08-06T18:55:21;102405.88;;;17.22;100.00
68712;BME280;55690;51.566;19.198;2022-08-06T18:59:27;102405.91;;;17.10;100.00
68712;BME280;55690;51.566;19.198;2022-08-06T19:03:33;102413.95;;;17.00;100.00
68712;BME280;55690;51.566;19.198;2022-08-06T19:07:40;102414.06;;;16.99;100.00
68712;BME280;55690;51.566;19.198;2022-08-06T19:11:45;102416.70;;;17.00;100.00
68712;BME280;55690;51.566;19.198;2022-08-06T19:15:52;102424.00;;;16.88;100.00
68712;BME280;55690;51.566;19.198;2022-08-06T19:19:58;102418.25;;;16.91;100.00
68712;BME280;55690;51.566;19.198;2022-08-06T19:24:05;102420.72;;;16.83;100.00
68712;BME280;55690;51.566;19.198;2022-08-06T19:28:10;102421.61;;;16.71;100.00
68712;BME280;55690;51.566;19.198;2022-08-06T19:32:16;102421.18;;;16.65;100.00
68712;BME280;55690;51.566;19.198;2022-08-06T19:36:26;102418.62;;;16.61;100.00
68712;BME280;55690;51.566;19.198;2022-08-06T19:40:29;102429.59;;;16.61;100.00
68712;BME280;55690;51.566;19.198;2022-08-06T19:44:43;102427.19;;;16.57;100.00
68712;BME280;55690;51.566;19.198;2022-08-06T19:48:46;102428.49;;;16.51;100.00
68712;BME280;55690;51.566;19.198;2022-08-06T19:52:52;102433.86;;;16.53;100.00
68712;BME280;55690;51.566;19.198;2022-08-06T19:56:54;102434.86;;;16.52;100.00
68712;BME280;55690;51.566;19.198;2022-08-06T20:00:59;102435.74;;;16.52;100.00
68712;BME280;55690;51.566;19.198;2022-08-06T20:05:10;102445.27;;;16.47;100.00
68712;BME280;55690;51.566;19.198;2022-08-06T20:09:12;102450.24;;;16.42;100.00
68712;BME280;55690;51.566;19.198;2022-08-06T20:13:18;102446.18;;;16.35;100.00
68712;BME280;55690;51.566;19.198;2022-08-06T20:17:24;102453.08;;;16.27;100.00
68712;BME280;55690;51.566;19.198;2022-08-06T20:21:30;102452.10;;;16.28;100.00
68712;BME280;55690;51.566;19.198;2022-08-06T20:25:36;102449.46;;;16.27;100.00
68712;BME280;55690;51.566;19.198;2022-08-06T20:29:42;102453.52;;;16.21;100.00
68712;BME280;55690;51.566;19.198;2022-08-06T20:33:49;102456.59;;;16.29;100.00
68712;BME280;55690;51.566;19.198;2022-08-06T20:37:55;102468.45;;;16.30;100.00
68712;BME280;55690;51.566;19.198;2022-08-06T20:42:01;102465.04;;;16.26;100.00
68712;BME280;55690;51.566;19.198;2022-08-06T20:46:07;102465.36;;;16.22;100.00
68712;BME280;55690;51.566;19.198;2022-08-06T20:54:20;102470.27;;;16.17;100.00
68712;BME280;55690;51.566;19.198;2022-08-06T20:58:26;102482.77;;;16.08;100.00
68712;BME280;55690;51.566;19.198;2022-08-06T21:02:32;102490.10;;;16.08;100.00
68712;BME280;55690;51.566;19.198;2022-08-06T21:06:44;102488.91;;;16.12;100.00
68712;BME280;55690;51.566;19.198;2022-08-06T21:10:45;102490.45;;;16.16;100.00
68712;BME280;55690;51.566;19.198;2022-08-06T21:14:54;102494.27;;;16.13;100.00
68712;BME280;55690;51.566;19.198;2022-08-06T21:18:56;102489.78;;;16.12;100.00
68712;BME280;55690;51.566;19.198;2022-08-06T21:23:03;102496.46;;;16.08;100.00
68712;BME280;55690;51.566;19.198;2022-08-06T21:27:09;102501.63;;;16.13;100.00
68712;BME280;55690;51.566;19.198;2022-08-06T21:31:15;102513.04;;;16.19;100.00
68712;BME280;55690;51.566;19.198;2022-08-06T21:35:21;102516.14;;;16.27;100.00
68712;BME280;55690;51.566;19.198;2022-08-06T21:39:29;102502.98;;;16.33;100.00
68712;BME280;55690;51.566;19.198;2022-08-06T21:43:34;102510.89;;;16.37;100.00
68712;BME280;55690;51.566;19.198;2022-08-06T21:47:40;102511.09;;;16.34;100.00
68712;BME280;55690;51.566;19.198;2022-08-06T21:51:46;102508.14;;;16.37;100.00
68712;BME280;55690;51.566;19.198;2022-08-06T21:55:52;102508.24;;;16.48;100.00
68712;BME280;55690;51.566;19.198;2022-08-06T21:59:58;102505.93;;;16.55;100.00
68712;BME280;55690;51.566;19.198;2022-08-06T22:04:04;102512.63;;;16.51;100.00
68712;BME280;55690;51.566;19.198;2022-08-06T22:08:10;102507.36;;;16.48;98.37
68712;BME280;55690;51.566;19.198;2022-08-06T22:12:17;102511.76;;;16.50;100.00
68712;BME280;55690;51.566;19.198;2022-08-06T22:16:23;102514.30;;;16.41;100.00
68712;BME280;55690;51.566;19.198;2022-08-06T22:20:30;102518.14;;;16.38;100.00
68712;BME280;55690;51.566;19.198;2022-08-06T22:24:36;102515.06;;;16.43;100.00
68712;BME280;55690;51.566;19.198;2022-08-06T22:28:41;102517.81;;;16.43;100.00
68712;BME280;55690;51.566;19.198;2022-08-06T22:32:47;102526.67;;;16.34;100.00
68712;BME280;55690;51.566;19.198;2022-08-06T22:36:54;102521.40;;;16.30;100.00
68712;BME280;55690;51.566;19.198;2022-08-06T22:41:00;102526.11;;;16.28;100.00
68712;BME280;55690;51.566;19.198;2022-08-06T22:45:07;102527.10;;;16.27;100.00
68712;BME280;55690;51.566;19.198;2022-08-06T22:49:12;102518.63;;;16.18;97.03
68712;BME280;55690;51.566;19.198;2022-08-06T22:53:18;102516.31;;;16.12;97.73
68712;BME280;55690;51.566;19.198;2022-08-06T22:57:25;102513.56;;;16.12;94.82
68712;BME280;55690;51.566;19.198;2022-08-06T23:01:31;102520.24;;;16.08;97.30
68712;BME280;55690;51.566;19.198;2022-08-06T23:05:37;102515.95;;;16.04;94.00
68712;BME280;55690;51.566;19.198;2022-08-06T23:09:43;102514.55;;;15.98;94.74
68712;BME280;55690;51.566;19.198;2022-08-06T23:13:50;102508.70;;;15.90;94.15
68712;BME280;55690;51.566;19.198;2022-08-06T23:17:55;102510.92;;;15.71;94.57